createdAt,value
2019-02-25T00:00:20.521Z,101293.03
2019-02-25T00:05:23.894Z,101293.34
2019-02-25T00:10:26.845Z,101278.38
2019-02-25T00:15:29.948Z,101276.74
2019-02-25T00:20:32.929Z,101277.74
2019-02-25T00:25:36.206Z,101283.38
2019-02-25T00:30:39.507Z,101281.23
2019-02-25T00:35:42.551Z,101290.97
2019-02-25T00:40:45.516Z,101285.73
2019-02-25T00:45:48.911Z,101280.63
2019-02-25T00:50:51.981Z,101274.13
2019-02-25T00:55:55.150Z,101265.93
2019-02-25T01:00:58.390Z,101251.20
2019-02-25T01:06:02.261Z,101256.72
2019-02-25T01:11:05.214Z,101247.00
2019-02-25T01:16:08.430Z,101232.66
2019-02-25T01:21:11.417Z,101235.03
2019-02-25T01:26:14.544Z,101235.38
2019-02-25T01:31:17.524Z,101232.20
2019-02-25T01:36:20.768Z,101243.86
2019-02-25T01:41:23.688Z,101236.96
2019-02-25T01:46:26.713Z,101238.31
2019-02-25T01:51:29.693Z,101246.24
2019-02-25T01:56:33.393Z,101247.36
2019-02-25T02:01:36.499Z,101239.97
2019-02-25T02:06:39.406Z,101238.94
2019-02-25T02:11:42.524Z,101248.78
2019-02-25T02:16:45.608Z,101247.22
2019-02-25T02:21:48.714Z,101237.75
2019-02-25T02:26:52.042Z,101237.45
2019-02-25T02:31:55.348Z,101231.27
2019-02-25T02:36:58.303Z,101224.33
2019-02-25T02:42:21.632Z,101217.61
2019-02-25T02:47:56.489Z,101217.61
2019-02-25T02:52:59.514Z,101212.52
2019-02-25T02:58:02.969Z,101211.34
2019-02-25T03:03:06.161Z,101214.99
2019-02-25T03:08:09.442Z,101208.20
2019-02-25T03:13:12.552Z,101199.60
2019-02-25T03:18:15.640Z,101189.09
2019-02-25T03:23:18.923Z,101177.42
2019-02-25T03:28:21.959Z,101170.21
2019-02-25T03:33:25.295Z,101177.70
2019-02-25T03:38:28.518Z,101171.92
2019-02-25T03:43:31.637Z,101172.48
2019-02-25T03:48:34.754Z,101190.83
2019-02-25T03:53:37.922Z,101190.47
2019-02-25T03:58:41.217Z,101196.00
2019-02-25T04:03:44.744Z,101193.16
2019-02-25T04:08:47.726Z,101172.38
2019-02-25T04:13:50.701Z,101180.89
2019-02-25T04:18:53.999Z,101179.68
2019-02-25T04:23:57.074Z,101176.29
2019-02-25T04:29:00.151Z,101180.33
2019-02-25T04:34:03.296Z,101170.23
2019-02-25T04:39:06.411Z,101166.00
2019-02-25T04:44:09.433Z,101171.28
2019-02-25T04:49:12.524Z,101157.23
2019-02-25T04:54:15.623Z,101156.70
2019-02-25T04:59:18.557Z,101154.10
2019-02-25T05:04:21.941Z,101154.02
2019-02-25T05:09:25.146Z,101147.39
2019-02-25T05:14:28.150Z,101133.69
2019-02-25T05:19:31.607Z,101130.88
2019-02-25T05:24:34.637Z,101130.91
2019-02-25T05:29:37.742Z,101121.34
2019-02-25T05:34:40.757Z,101122.20
2019-02-25T05:39:43.963Z,101123.64
2019-02-25T05:44:47.087Z,101130.70
2019-02-25T05:49:50.074Z,101128.82
2019-02-25T05:54:53.056Z,101114.75
2019-02-25T05:59:56.021Z,101109.89
2019-02-25T06:04:59.070Z,101104.70
2019-02-25T06:10:02.552Z,101111.34
2019-02-25T06:15:06.998Z,101126.93
2019-02-25T06:20:11.172Z,101135.30
2019-02-25T06:25:14.334Z,101141.69
2019-02-25T06:30:17.430Z,101140.75
2019-02-25T06:35:20.470Z,101143.97
2019-02-25T06:40:23.481Z,101135.45
2019-02-25T06:45:26.762Z,101121.09
2019-02-25T06:50:29.839Z,101129.23
2019-02-25T06:55:32.873Z,101132.67
2019-02-25T07:00:36.189Z,101126.34
2019-02-25T07:06:04.735Z,101124.45
2019-02-25T07:11:39.305Z,101117.53
2019-02-25T07:16:52.261Z,101104.64
2019-02-25T07:22:07.972Z,101103.12
2019-02-25T07:27:29.612Z,101104.89
2019-02-25T07:33:01.344Z,101111.60
2019-02-25T07:38:23.957Z,101106.66
2019-02-25T07:43:55.334Z,101100.99
2019-02-25T07:49:33.047Z,101112.26
2019-02-25T07:54:55.575Z,101092.35
2019-02-25T08:00:08.631Z,101090.55
2019-02-25T08:05:36.986Z,101082.56
2019-02-25T08:10:59.880Z,101085.67
2019-02-25T08:16:22.598Z,101102.00
2019-02-25T08:21:57.600Z,101090.19
2019-02-25T08:27:26.546Z,101094.74
2019-02-25T08:32:51.801Z,101082.91
2019-02-25T08:38:28.610Z,101098.53
2019-02-25T08:43:51.159Z,101094.40
2019-02-25T08:49:00.655Z,101100.18
2019-02-25T08:54:03.817Z,101094.35
2019-02-25T08:59:06.884Z,101094.03
2019-02-25T09:04:09.933Z,101090.98
2019-02-25T09:09:13.230Z,101113.35
2019-02-25T09:14:16.701Z,101111.85
2019-02-25T09:19:19.848Z,101092.88
2019-02-25T09:24:23.169Z,101064.66
2019-02-25T09:29:26.472Z,101045.64
2019-02-25T09:34:29.417Z,101062.38
2019-02-25T09:39:32.693Z,101064.63
2019-02-25T09:44:37.760Z,101076.69
2019-02-25T09:49:40.915Z,101090.98
2019-02-25T09:54:43.921Z,101086.11
2019-02-25T09:59:47.047Z,101094.52
2019-02-25T10:04:50.314Z,101102.89
2019-02-25T10:09:53.254Z,101088.09
2019-02-25T10:14:56.285Z,101093.95
2019-02-25T10:19:59.289Z,101089.02
2019-02-25T10:25:02.528Z,101082.06
2019-02-25T10:30:07.927Z,101099.59
2019-02-25T10:35:12.177Z,101098.77
2019-02-25T10:40:18.132Z,101103.55
2019-02-25T10:45:20.805Z,101110.46
2019-02-25T10:50:23.752Z,101099.91
2019-02-25T10:55:34.245Z,101088.39
2019-02-25T11:00:39.438Z,101078.77
2019-02-25T11:05:42.750Z,101055.96
2019-02-25T11:11:05.366Z,101038.28
2019-02-25T11:16:09.787Z,101041.94
2019-02-25T11:21:13.415Z,101027.64
2019-02-25T11:26:16.390Z,101015.72
2019-02-25T11:31:22.852Z,101011.25
2019-02-25T11:36:25.124Z,101014.10
2019-02-25T11:41:29.679Z,101003.43
2019-02-25T11:46:32.968Z,100995.95
2019-02-25T11:51:36.358Z,100975.00
2019-02-25T11:56:39.371Z,100973.75
2019-02-25T12:01:42.416Z,100965.53
2019-02-25T12:06:45.430Z,100972.56
2019-02-25T12:11:48.561Z,100960.45
2019-02-25T12:16:51.765Z,100950.84
2019-02-25T12:21:54.733Z,100949.25
2019-02-25T12:26:57.820Z,100931.86
2019-02-25T12:32:00.915Z,100921.69
2019-02-25T12:37:04.118Z,100920.27
2019-02-25T12:42:07.091Z,100911.20
2019-02-25T12:47:10.306Z,100903.84
2019-02-25T12:52:14.161Z,100895.10
2019-02-25T12:57:17.105Z,100884.56
2019-02-25T13:02:20.223Z,100860.55
2019-02-25T13:07:23.204Z,100854.27
2019-02-25T13:12:26.775Z,100851.00
2019-02-25T13:17:29.745Z,100838.00
2019-02-25T13:22:32.732Z,100835.90
2019-02-25T13:27:36.366Z,100832.92
2019-02-25T13:32:39.337Z,100833.15
2019-02-25T13:37:42.811Z,100819.61
2019-02-25T13:42:45.963Z,100810.77
2019-02-25T13:47:49.278Z,100822.56
2019-02-25T13:52:52.946Z,100814.30
2019-02-25T13:57:57.618Z,100817.52
2019-02-25T14:03:03.199Z,100820.50
2019-02-25T14:08:05.870Z,100811.55
2019-02-25T14:13:09.306Z,100801.30
2019-02-25T14:18:12.346Z,100793.34
2019-02-25T14:23:16.107Z,100789.88
2019-02-25T14:28:19.252Z,100775.22
2019-02-25T14:33:23.637Z,100775.14
2019-02-25T14:38:27.647Z,100766.58
2019-02-25T14:43:36.704Z,100780.68
2019-02-25T14:48:36.963Z,100787.88
2019-02-25T14:53:41.756Z,100790.98
2019-02-25T14:58:46.081Z,100781.41
2019-02-25T15:03:50.164Z,100762.65
2019-02-25T15:08:53.156Z,100751.68
2019-02-25T15:13:56.748Z,100738.78
2019-02-25T15:19:00.667Z,100736.64
2019-02-25T15:24:06.219Z,100755.70
2019-02-25T15:29:09.402Z,100756.38
2019-02-25T15:34:13.049Z,100760.52
2019-02-25T15:39:17.635Z,100768.50
2019-02-25T15:44:20.937Z,100757.23
2019-02-25T15:49:26.077Z,100768.95
2019-02-25T15:54:32.729Z,100777.37
2019-02-25T15:59:34.400Z,100790.65
2019-02-25T16:04:38.671Z,100787.92
2019-02-25T16:09:42.906Z,100794.92
2019-02-25T16:14:47.062Z,100779.12
2019-02-25T16:19:53.459Z,100782.14
2019-02-25T16:24:56.357Z,100787.13
2019-02-25T16:30:00.220Z,100774.48
2019-02-25T16:35:07.167Z,100758.53
2019-02-25T16:40:10.827Z,100755.89
2019-02-25T16:45:16.654Z,100752.28
2019-02-25T16:50:21.097Z,100781.08
2019-02-25T16:55:25.765Z,100794.41
2019-02-25T17:00:31.924Z,100790.44
2019-02-25T17:05:37.332Z,100777.83
2019-02-25T17:10:39.817Z,100785.44
2019-02-25T17:15:46.010Z,100779.84
2019-02-25T17:20:50.428Z,100784.98
2019-02-25T17:25:53.478Z,100781.06
2019-02-25T17:30:56.733Z,100784.91
2019-02-25T17:35:59.928Z,100798.18
2019-02-25T17:41:04.112Z,100778.73
2019-02-25T17:46:09.250Z,100782.15
2019-02-25T17:51:13.064Z,100783.48
2019-02-25T17:56:17.935Z,100780.69
2019-02-25T18:01:22.038Z,100777.91
2019-02-25T18:06:30.144Z,100773.53
2019-02-25T18:11:31.156Z,100778.16
2019-02-25T18:16:35.376Z,100785.66
2019-02-25T18:21:43.023Z,100768.00
2019-02-25T18:26:47.032Z,100771.70
2019-02-25T18:31:50.175Z,100780.84
2019-02-25T18:36:55.330Z,100773.92
2019-02-25T18:41:58.464Z,100771.50
2019-02-25T18:47:01.649Z,100774.47
2019-02-25T18:52:05.357Z,100759.84
2019-02-25T18:57:08.376Z,100770.80
2019-02-25T19:02:12.725Z,100771.80
2019-02-25T19:07:16.484Z,100758.52
2019-02-25T19:12:19.600Z,100757.10
2019-02-25T19:17:23.248Z,100760.66
2019-02-25T19:22:29.408Z,100744.77
2019-02-25T19:27:33.732Z,100756.88
2019-02-25T19:32:39.917Z,100757.34
2019-02-25T19:37:44.429Z,100744.15
2019-02-25T19:42:51.356Z,100745.07
2019-02-25T19:47:55.377Z,100742.50
2019-02-25T19:53:02.543Z,100734.84
2019-02-25T19:58:03.964Z,100739.11
2019-02-25T20:03:07.334Z,100746.43
2019-02-25T20:08:10.912Z,100726.72
2019-02-25T20:13:14.171Z,100725.19
2019-02-25T20:18:18.392Z,100729.09
2019-02-25T20:23:24.411Z,100714.66
2019-02-25T20:28:27.368Z,100718.89
2019-02-25T20:33:32.977Z,100718.20
2019-02-25T20:38:37.261Z,100714.30
2019-02-25T20:43:40.788Z,100718.20
2019-02-25T20:48:46.493Z,100718.13
2019-02-25T20:53:50.703Z,100723.42
2019-02-25T20:58:54.057Z,100717.84
2019-02-25T21:03:58.948Z,100716.32
2019-02-25T21:09:02.466Z,100709.78
2019-02-25T21:14:07.443Z,100717.74
2019-02-25T21:19:12.578Z,100723.88
2019-02-25T21:24:15.697Z,100718.30
2019-02-25T21:29:18.749Z,100723.42
2019-02-25T21:34:24.410Z,100727.82
2019-02-25T21:39:27.330Z,100724.37
2019-02-25T21:44:31.545Z,100713.03
2019-02-25T21:49:36.476Z,100718.24
2019-02-25T21:54:39.956Z,100717.74
2019-02-25T21:59:42.993Z,100709.70
2019-02-25T22:04:48.129Z,100704.48
2019-02-25T22:09:51.475Z,100701.81
2019-02-25T22:14:54.531Z,100696.41
2019-02-25T22:19:58.083Z,100693.85
2019-02-25T22:25:05.862Z,100678.41
2019-02-25T22:30:09.647Z,100657.01
2019-02-25T22:35:15.121Z,100658.75
2019-02-25T22:40:18.551Z,100637.66
2019-02-25T22:45:21.689Z,100644.14
2019-02-25T22:50:24.686Z,100642.70
2019-02-25T22:55:28.121Z,100641.75
2019-02-25T23:00:45.274Z,100643.11
2019-02-25T23:05:50.339Z,100625.05
2019-02-25T23:10:54.143Z,100615.25
2019-02-25T23:15:57.867Z,100618.55
2019-02-25T23:21:03.070Z,100623.14
2019-02-25T23:26:06.549Z,100629.88
2019-02-25T23:31:09.615Z,100621.66
2019-02-25T23:36:14.824Z,100617.55
2019-02-25T23:41:17.677Z,100614.11
2019-02-25T23:46:25.205Z,100617.48
2019-02-25T23:51:25.883Z,100602.87
2019-02-25T23:56:29.644Z,100589.32
